sensor_id;sensor_type;location;lat;lon;timestamp;temperature;humidity
23188;DHT22;11762;59.878;17.686;2022-11-20T00:01:06;0.10;99.90
23188;DHT22;11762;59.878;17.686;2022-11-20T00:03:34;0.20;99.90
23188;DHT22;11762;59.878;17.686;2022-11-20T00:06:04;0.10;99.90
23188;DHT22;11762;59.878;17.686;2022-11-20T00:08:31;0.10;99.90
23188;DHT22;11762;59.878;17.686;2022-11-20T00:11:02;0.10;99.90
23188;DHT22;11762;59.878;17.686;2022-11-20T00:13:29;0.10;99.90
23188;DHT22;11762;59.878;17.686;2022-11-20T00:16:01;0.10;99.90
23188;DHT22;11762;59.878;17.686;2022-11-20T00:18:28;0.00;99.90
23188;DHT22;11762;59.878;17.686;2022-11-20T00:21:01;0.10;99.90
23188;DHT22;11762;59.878;17.686;2022-11-20T00:23:29;0.00;99.90
23188;DHT22;11762;59.878;17.686;2022-11-20T00:25:56;-0.10;99.90
23188;DHT22;11762;59.878;17.686;2022-11-20T00:28:23;0.00;99.90
23188;DHT22;11762;59.878;17.686;2022-11-20T00:30:50;0.00;99.90
23188;DHT22;11762;59.878;17.686;2022-11-20T00:33:17;0.00;99.90
23188;DHT22;11762;59.878;17.686;2022-11-20T00:35:44;0.00;99.90
23188;DHT22;11762;59.878;17.686;2022-11-20T00:38:11;0.00;99.90
23188;DHT22;11762;59.878;17.686;2022-11-20T00:40:39;0.00;99.90
23188;DHT22;11762;59.878;17.686;2022-11-20T00:43:06;0.00;99.90
23188;DHT22;11762;59.878;17.686;2022-11-20T00:45:33;0.00;99.90
23188;DHT22;11762;59.878;17.686;2022-11-20T00:48:00;0.00;99.90
23188;DHT22;11762;59.878;17.686;2022-11-20T00:50:27;0.00;99.90
23188;DHT22;11762;59.878;17.686;2022-11-20T00:52:54;0.00;99.90
23188;DHT22;11762;59.878;17.686;2022-11-20T00:55:21;0.00;99.90
23188;DHT22;11762;59.878;17.686;2022-11-20T00:57:49;0.00;99.90
23188;DHT22;11762;59.878;17.686;2022-11-20T01:00:17;0.00;99.90
23188;DHT22;11762;59.878;17.686;2022-11-20T01:02:43;0.00;99.90
23188;DHT22;11762;59.878;17.686;2022-11-20T01:05:11;0.00;99.90
23188;DHT22;11762;59.878;17.686;2022-11-20T01:07:38;0.00;99.90
23188;DHT22;11762;59.878;17.686;2022-11-20T01:10:06;-0.10;99.90
23188;DHT22;11762;59.878;17.686;2022-11-20T01:12:33;0.00;99.90
23188;DHT22;11762;59.878;17.686;2022-11-20T01:15:01;0.00;99.90
23188;DHT22;11762;59.878;17.686;2022-11-20T01:17:28;-0.10;99.90
23188;DHT22;11762;59.878;17.686;2022-11-20T01:19:55;-0.10;99.90
23188;DHT22;11762;59.878;17.686;2022-11-20T01:22:22;-0.10;99.90
23188;DHT22;11762;59.878;17.686;2022-11-20T01:24:49;-0.10;99.90
23188;DHT22;11762;59.878;17.686;2022-11-20T01:27:16;-0.20;99.90
23188;DHT22;11762;59.878;17.686;2022-11-20T01:29:43;-0.20;99.90
23188;DHT22;11762;59.878;17.686;2022-11-20T01:32:11;-0.20;99.90
23188;DHT22;11762;59.878;17.686;2022-11-20T01:34:38;-0.20;99.90
23188;DHT22;11762;59.878;17.686;2022-11-20T01:37:05;-0.20;99.90
23188;DHT22;11762;59.878;17.686;2022-11-20T01:39:32;-0.20;99.90
23188;DHT22;11762;59.878;17.686;2022-11-20T01:41:59;-0.20;99.90
23188;DHT22;11762;59.878;17.686;2022-11-20T01:44:54;-0.20;99.90
23188;DHT22;11762;59.878;17.686;2022-11-20T01:47:27;-0.20;99.90
23188;DHT22;11762;59.878;17.686;2022-11-20T01:49:59;-0.20;99.90
23188;DHT22;11762;59.878;17.686;2022-11-20T01:52:30;-0.20;99.90
23188;DHT22;11762;59.878;17.686;2022-11-20T01:55:02;-0.20;99.90
23188;DHT22;11762;59.878;17.686;2022-11-20T01:57:32;-0.20;99.90
23188;DHT22;11762;59.878;17.686;2022-11-20T02:00:03;-0.20;99.90
23188;DHT22;11762;59.878;17.686;2022-11-20T02:02:32;-0.20;99.90
23188;DHT22;11762;59.878;17.686;2022-11-20T02:05:04;-0.20;99.90
23188;DHT22;11762;59.878;17.686;2022-11-20T02:07:36;-0.20;99.90
23188;DHT22;11762;59.878;17.686;2022-11-20T02:10:04;-0.20;99.90
23188;DHT22;11762;59.878;17.686;2022-11-20T02:12:31;-0.20;99.90
23188;DHT22;11762;59.878;17.686;2022-11-20T02:15:15;-0.20;99.90
23188;DHT22;11762;59.878;17.686;2022-11-20T02:17:44;-0.20;99.90
23188;DHT22;11762;59.878;17.686;2022-11-20T02:20:12;-0.20;99.90
23188;DHT22;11762;59.878;17.686;2022-11-20T02:22:44;-0.20;99.90
23188;DHT22;11762;59.878;17.686;2022-11-20T02:25:15;-0.20;99.90
23188;DHT22;11762;59.878;17.686;2022-11-20T02:27:43;-0.30;99.90
23188;DHT22;11762;59.878;17.686;2022-11-20T02:30:10;-0.30;99.90
23188;DHT22;11762;59.878;17.686;2022-11-20T02:32:39;-0.30;99.90
23188;DHT22;11762;59.878;17.686;2022-11-20T02:35:08;-0.30;99.90
23188;DHT22;11762;59.878;17.686;2022-11-20T02:37:38;-0.30;99.90
23188;DHT22;11762;59.878;17.686;2022-11-20T02:40:07;-0.30;99.90
23188;DHT22;11762;59.878;17.686;2022-11-20T02:42:35;-0.30;99.90
23188;DHT22;11762;59.878;17.686;2022-11-20T02:45:02;-0.30;99.90
23188;DHT22;11762;59.878;17.686;2022-11-20T02:47:30;-0.30;99.90
23188;DHT22;11762;59.878;17.686;2022-11-20T02:49:57;-0.30;99.90
23188;DHT22;11762;59.878;17.686;2022-11-20T02:52:24;-0.40;99.90
23188;DHT22;11762;59.878;17.686;2022-11-20T02:54:52;-0.40;99.90
23188;DHT22;11762;59.878;17.686;2022-11-20T02:57:19;-0.30;99.90
23188;DHT22;11762;59.878;17.686;2022-11-20T02:59:47;-0.30;99.90
23188;DHT22;11762;59.878;17.686;2022-11-20T03:02:14;-0.30;99.90
23188;DHT22;11762;59.878;17.686;2022-11-20T03:04:41;-0.30;99.90
23188;DHT22;11762;59.878;17.686;2022-11-20T03:07:08;-0.30;99.90
23188;DHT22;11762;59.878;17.686;2022-11-20T03:09:35;-0.30;99.90
23188;DHT22;11762;59.878;17.686;2022-11-20T03:12:03;-0.30;99.90
23188;DHT22;11762;59.878;17.686;2022-11-20T03:14:30;-0.30;99.90
23188;DHT22;11762;59.878;17.686;2022-11-20T03:16:58;-0.30;99.90
23188;DHT22;11762;59.878;17.686;2022-11-20T03:19:25;-0.30;99.90
23188;DHT22;11762;59.878;17.686;2022-11-20T03:21:52;-0.30;99.90
23188;DHT22;11762;59.878;17.686;2022-11-20T03:24:19;-0.30;99.90
23188;DHT22;11762;59.878;17.686;2022-11-20T03:26:46;-0.30;99.90
23188;DHT22;11762;59.878;17.686;2022-11-20T03:29:13;-0.40;99.90
23188;DHT22;11762;59.878;17.686;2022-11-20T03:31:40;-0.40;99.90
23188;DHT22;11762;59.878;17.686;2022-11-20T03:34:10;-0.40;99.90
23188;DHT22;11762;59.878;17.686;2022-11-20T03:36:37;-0.40;99.90
23188;DHT22;11762;59.878;17.686;2022-11-20T03:39:05;-0.40;99.90
23188;DHT22;11762;59.878;17.686;2022-11-20T03:41:36;-0.40;99.90
23188;DHT22;11762;59.878;17.686;2022-11-20T03:44:06;-0.40;99.90
23188;DHT22;11762;59.878;17.686;2022-11-20T03:46:33;-0.30;99.90
23188;DHT22;11762;59.878;17.686;2022-11-20T03:49:00;-0.40;99.90
23188;DHT22;11762;59.878;17.686;2022-11-20T03:51:30;-0.30;99.90
23188;DHT22;11762;59.878;17.686;2022-11-20T03:53:59;-0.40;99.90
23188;DHT22;11762;59.878;17.686;2022-11-20T03:56:28;-0.40;99.90
23188;DHT22;11762;59.878;17.686;2022-11-20T03:58:55;-0.40;99.90
23188;DHT22;11762;59.878;17.686;2022-11-20T04:01:24;-0.40;99.90
23188;DHT22;11762;59.878;17.686;2022-11-20T04:03:52;-0.40;99.90
23188;DHT22;11762;59.878;17.686;2022-11-20T04:06:21;-0.40;99.90
23188;DHT22;11762;59.878;17.686;2022-11-20T04:08:50;-0.40;99.90
23188;DHT22;11762;59.878;17.686;2022-11-20T04:11:18;-0.40;99.90
23188;DHT22;11762;59.878;17.686;2022-11-20T04:13:47;-0.40;99.90
23188;DHT22;11762;59.878;17.686;2022-11-20T04:16:15;-0.40;99.90
23188;DHT22;11762;59.878;17.686;2022-11-20T04:18:42;-0.30;99.90
23188;DHT22;11762;59.878;17.686;2022-11-20T04:21:10;-0.40;99.90
23188;DHT22;11762;59.878;17.686;2022-11-20T04:23:37;-0.30;99.90
23188;DHT22;11762;59.878;17.686;2022-11-20T04:26:07;-0.40;99.90
23188;DHT22;11762;59.878;17.686;2022-11-20T04:28:35;-0.40;99.90
23188;DHT22;11762;59.878;17.686;2022-11-20T04:31:07;-0.40;99.90
23188;DHT22;11762;59.878;17.686;2022-11-20T04:33:35;-0.40;99.90
23188;DHT22;11762;59.878;17.686;2022-11-20T04:36:03;-0.40;99.90
23188;DHT22;11762;59.878;17.686;2022-11-20T04:38:31;-0.40;99.90
23188;DHT22;11762;59.878;17.686;2022-11-20T04:40:59;-0.40;99.90
23188;DHT22;11762;59.878;17.686;2022-11-20T04:43:27;-0.40;99.90
23188;DHT22;11762;59.878;17.686;2022-11-20T04:45:55;-0.50;99.90
23188;DHT22;11762;59.878;17.686;2022-11-20T04:48:24;-0.50;99.90
23188;DHT22;11762;59.878;17.686;2022-11-20T04:50:51;-0.50;99.90
23188;DHT22;11762;59.878;17.686;2022-11-20T04:53:19;-0.50;99.90
23188;DHT22;11762;59.878;17.686;2022-11-20T04:55:46;-0.50;99.90
23188;DHT22;11762;59.878;17.686;2022-11-20T04:58:13;-0.50;99.90
23188;DHT22;11762;59.878;17.686;2022-11-20T05:00:42;-0.50;99.90
23188;DHT22;11762;59.878;17.686;2022-11-20T05:03:09;-0.50;99.90
23188;DHT22;11762;59.878;17.686;2022-11-20T05:05:36;-0.40;99.90
23188;DHT22;11762;59.878;17.686;2022-11-20T05:08:03;-0.40;99.90
23188;DHT22;11762;59.878;17.686;2022-11-20T05:10:30;-0.40;99.90
23188;DHT22;11762;59.878;17.686;2022-11-20T05:12:57;-0.40;99.90
23188;DHT22;11762;59.878;17.686;2022-11-20T05:15:24;-0.40;99.90
23188;DHT22;11762;59.878;17.686;2022-11-20T05:17:52;-0.40;99.90
23188;DHT22;11762;59.878;17.686;2022-11-20T05:20:20;-0.40;99.90
23188;DHT22;11762;59.878;17.686;2022-11-20T05:22:47;-0.30;99.90
23188;DHT22;11762;59.878;17.686;2022-11-20T05:25:14;-0.40;99.90
23188;DHT22;11762;59.878;17.686;2022-11-20T05:27:41;-0.40;99.90
23188;DHT22;11762;59.878;17.686;2022-11-20T05:30:09;-0.30;99.90
23188;DHT22;11762;59.878;17.686;2022-11-20T05:32:36;-0.30;99.90
23188;DHT22;11762;59.878;17.686;2022-11-20T05:35:05;-0.30;99.90
23188;DHT22;11762;59.878;17.686;2022-11-20T05:37:32;-0.30;99.90
23188;DHT22;11762;59.878;17.686;2022-11-20T05:39:59;-0.30;99.90
23188;DHT22;11762;59.878;17.686;2022-11-20T05:42:29;-0.30;99.90
23188;DHT22;11762;59.878;17.686;2022-11-20T05:45:00;-0.30;99.90
23188;DHT22;11762;59.878;17.686;2022-11-20T05:47:32;-0.30;99.90
23188;DHT22;11762;59.878;17.686;2022-11-20T05:49:59;-0.30;99.90
23188;DHT22;11762;59.878;17.686;2022-11-20T05:52:29;-0.30;99.90
23188;DHT22;11762;59.878;17.686;2022-11-20T05:54:57;-0.30;99.90
23188;DHT22;11762;59.878;17.686;2022-11-20T05:57:24;-0.30;99.90
23188;DHT22;11762;59.878;17.686;2022-11-20T05:59:51;-0.30;99.90
23188;DHT22;11762;59.878;17.686;2022-11-20T06:02:18;-0.30;99.90
23188;DHT22;11762;59.878;17.686;2022-11-20T06:04:44;-0.30;99.90
23188;DHT22;11762;59.878;17.686;2022-11-20T06:07:11;-0.30;99.90
23188;DHT22;11762;59.878;17.686;2022-11-20T06:09:40;-0.30;99.90
23188;DHT22;11762;59.878;17.686;2022-11-20T06:12:07;-0.30;99.90
23188;DHT22;11762;59.878;17.686;2022-11-20T06:14:34;-0.30;99.90
23188;DHT22;11762;59.878;17.686;2022-11-20T06:17:01;-0.30;99.90
23188;DHT22;11762;59.878;17.686;2022-11-20T06:19:28;-0.30;99.90
23188;DHT22;11762;59.878;17.686;2022-11-20T06:21:55;-0.30;99.90
23188;DHT22;11762;59.878;17.686;2022-11-20T06:24:22;-0.30;99.90
23188;DHT22;11762;59.878;17.686;2022-11-20T06:26:52;-0.30;99.90
23188;DHT22;11762;59.878;17.686;2022-11-20T06:29:19;-0.30;99.90
23188;DHT22;11762;59.878;17.686;2022-11-20T06:31:46;-0.30;99.90
23188;DHT22;11762;59.878;17.686;2022-11-20T06:34:13;-0.40;99.90
23188;DHT22;11762;59.878;17.686;2022-11-20T06:36:40;-0.40;99.90
23188;DHT22;11762;59.878;17.686;2022-11-20T06:39:07;-0.40;99.90
23188;DHT22;11762;59.878;17.686;2022-11-20T06:41:34;-0.40;99.90
23188;DHT22;11762;59.878;17.686;2022-11-20T06:44:03;-0.40;99.90
23188;DHT22;11762;59.878;17.686;2022-11-20T06:46:30;-0.40;99.90
23188;DHT22;11762;59.878;17.686;2022-11-20T06:48:57;-0.40;99.90
23188;DHT22;11762;59.878;17.686;2022-11-20T06:51:25;-0.50;99.90
23188;DHT22;11762;59.878;17.686;2022-11-20T06:53:53;-0.50;99.90
23188;DHT22;11762;59.878;17.686;2022-11-20T06:56:20;-0.40;99.90
23188;DHT22;11762;59.878;17.686;2022-11-20T06:58:47;-0.40;99.90
23188;DHT22;11762;59.878;17.686;2022-11-20T07:01:15;-0.40;99.90
23188;DHT22;11762;59.878;17.686;2022-11-20T07:03:43;-0.40;99.90
23188;DHT22;11762;59.878;17.686;2022-11-20T07:06:10;-0.40;99.90
23188;DHT22;11762;59.878;17.686;2022-11-20T07:08:37;-0.30;99.90
23188;DHT22;11762;59.878;17.686;2022-11-20T07:11:06;-0.30;99.90
23188;DHT22;11762;59.878;17.686;2022-11-20T07:13:33;-0.30;99.90
23188;DHT22;11762;59.878;17.686;2022-11-20T07:16:01;-0.30;99.90
23188;DHT22;11762;59.878;17.686;2022-11-20T07:18:30;-0.20;99.90
23188;DHT22;11762;59.878;17.686;2022-11-20T07:21:00;-0.20;99.90
23188;DHT22;11762;59.878;17.686;2022-11-20T07:23:27;-0.20;99.90
23188;DHT22;11762;59.878;17.686;2022-11-20T07:25:54;-0.20;99.90
23188;DHT22;11762;59.878;17.686;2022-11-20T07:28:21;-0.20;99.90
23188;DHT22;11762;59.878;17.686;2022-11-20T07:30:50;-0.20;99.90
23188;DHT22;11762;59.878;17.686;2022-11-20T07:33:17;-0.20;99.90
23188;DHT22;11762;59.878;17.686;2022-11-20T07:35:45;-0.20;99.90
23188;DHT22;11762;59.878;17.686;2022-11-20T07:38:12;-0.20;99.90
23188;DHT22;11762;59.878;17.686;2022-11-20T07:40:39;-0.20;99.90
23188;DHT22;11762;59.878;17.686;2022-11-20T07:43:06;-0.20;99.90
23188;DHT22;11762;59.878;17.686;2022-11-20T07:45:33;-0.20;99.90
23188;DHT22;11762;59.878;17.686;2022-11-20T07:48:00;-0.20;99.90
23188;DHT22;11762;59.878;17.686;2022-11-20T07:50:27;-0.20;99.90
23188;DHT22;11762;59.878;17.686;2022-11-20T07:53:03;-0.20;99.90
23188;DHT22;11762;59.878;17.686;2022-11-20T07:55:30;-0.20;99.90
23188;DHT22;11762;59.878;17.686;2022-11-20T07:57:57;-0.20;99.90
23188;DHT22;11762;59.878;17.686;2022-11-20T08:00:25;-0.20;99.90
23188;DHT22;11762;59.878;17.686;2022-11-20T08:02:53;-0.20;99.90
23188;DHT22;11762;59.878;17.686;2022-11-20T08:05:20;-0.20;99.90
23188;DHT22;11762;59.878;17.686;2022-11-20T08:07:47;-0.10;99.90
23188;DHT22;11762;59.878;17.686;2022-11-20T08:10:16;-0.20;99.90
23188;DHT22;11762;59.878;17.686;2022-11-20T08:12:48;-0.10;99.90
23188;DHT22;11762;59.878;17.686;2022-11-20T08:15:33;-0.10;99.90
23188;DHT22;11762;59.878;17.686;2022-11-20T08:18:01;-0.10;99.90
23188;DHT22;11762;59.878;17.686;2022-11-20T08:20:28;-0.10;99.90
23188;DHT22;11762;59.878;17.686;2022-11-20T08:22:59;-0.10;99.90
23188;DHT22;11762;59.878;17.686;2022-11-20T08:25:28;-0.10;99.90
23188;DHT22;11762;59.878;17.686;2022-11-20T08:27:57;-0.10;99.90
23188;DHT22;11762;59.878;17.686;2022-11-20T08:30:25;-0.10;99.90
23188;DHT22;11762;59.878;17.686;2022-11-20T08:32:52;-0.10;99.90
23188;DHT22;11762;59.878;17.686;2022-11-20T08:35:20;-0.10;99.90
23188;DHT22;11762;59.878;17.686;2022-11-20T08:37:47;-0.10;99.90
23188;DHT22;11762;59.878;17.686;2022-11-20T08:40:14;-0.10;99.90
23188;DHT22;11762;59.878;17.686;2022-11-20T08:42:47;0.00;99.90
23188;DHT22;11762;59.878;17.686;2022-11-20T08:45:15;0.00;99.90
23188;DHT22;11762;59.878;17.686;2022-11-20T08:47:42;0.00;99.90
23188;DHT22;11762;59.878;17.686;2022-11-20T08:50:09;0.00;99.90
23188;DHT22;11762;59.878;17.686;2022-11-20T08:52:37;0.00;99.90
23188;DHT22;11762;59.878;17.686;2022-11-20T08:55:06;0.00;99.90
23188;DHT22;11762;59.878;17.686;2022-11-20T08:57:33;0.00;99.90
23188;DHT22;11762;59.878;17.686;2022-11-20T09:00:04;0.00;99.90
23188;DHT22;11762;59.878;17.686;2022-11-20T09:02:31;0.00;99.90
23188;DHT22;11762;59.878;17.686;2022-11-20T09:04:59;0.00;99.90
23188;DHT22;11762;59.878;17.686;2022-11-20T09:07:28;0.00;99.90
23188;DHT22;11762;59.878;17.686;2022-11-20T09:09:55;0.00;99.90
23188;DHT22;11762;59.878;17.686;2022-11-20T09:12:22;0.00;99.90
23188;DHT22;11762;59.878;17.686;2022-11-20T09:14:49;0.00;99.90
23188;DHT22;11762;59.878;17.686;2022-11-20T09:17:17;0.00;99.90
23188;DHT22;11762;59.878;17.686;2022-11-20T09:19:46;0.00;99.90
23188;DHT22;11762;59.878;17.686;2022-11-20T09:22:13;0.00;99.90
23188;DHT22;11762;59.878;17.686;2022-11-20T09:24:40;0.00;99.90
23188;DHT22;11762;59.878;17.686;2022-11-20T09:27:08;0.00;99.90
23188;DHT22;11762;59.878;17.686;2022-11-20T09:29:35;0.00;99.90
23188;DHT22;11762;59.878;17.686;2022-11-20T09:32:02;0.00;99.90
23188;DHT22;11762;59.878;17.686;2022-11-20T09:34:30;0.00;99.90
23188;DHT22;11762;59.878;17.686;2022-11-20T09:36:57;0.00;99.90
23188;DHT22;11762;59.878;17.686;2022-11-20T09:39:24;0.00;99.90
23188;DHT22;11762;59.878;17.686;2022-11-20T09:47:41;0.00;99.90
23188;DHT22;11762;59.878;17.686;2022-11-20T09:50:23;0.00;99.90
23188;DHT22;11762;59.878;17.686;2022-11-20T09:53:08;0.10;99.90
23188;DHT22;11762;59.878;17.686;2022-11-20T09:55:38;0.00;99.90
23188;DHT22;11762;59.878;17.686;2022-11-20T09:58:06;0.10;99.90
23188;DHT22;11762;59.878;17.686;2022-11-20T10:00:35;0.10;99.90
23188;DHT22;11762;59.878;17.686;2022-11-20T10:03:10;0.00;99.90
23188;DHT22;11762;59.878;17.686;2022-11-20T10:05:44;0.00;99.90
23188;DHT22;11762;59.878;17.686;2022-11-20T10:08:17;0.00;99.90
23188;DHT22;11762;59.878;17.686;2022-11-20T10:10:47;0.00;99.90
23188;DHT22;11762;59.878;17.686;2022-11-20T10:13:24;0.00;99.90
23188;DHT22;11762;59.878;17.686;2022-11-20T10:16:01;0.00;99.90
23188;DHT22;11762;59.878;17.686;2022-11-20T10:18:42;0.00;99.90
23188;DHT22;11762;59.878;17.686;2022-11-20T10:21:23;0.00;99.90
23188;DHT22;11762;59.878;17.686;2022-11-20T10:24:26;0.00;99.90
23188;DHT22;11762;59.878;17.686;2022-11-20T10:27:03;0.00;99.90
23188;DHT22;11762;59.878;17.686;2022-11-20T10:29:34;0.00;99.90
23188;DHT22;11762;59.878;17.686;2022-11-20T10:32:03;0.00;99.90
23188;DHT22;11762;59.878;17.686;2022-11-20T10:34:35;0.00;99.90
23188;DHT22;11762;59.878;17.686;2022-11-20T10:37:11;0.00;99.90
23188;DHT22;11762;59.878;17.686;2022-11-20T10:39:43;0.00;99.90
23188;DHT22;11762;59.878;17.686;2022-11-20T10:42:13;0.00;99.90
23188;DHT22;11762;59.878;17.686;2022-11-20T10:44:47;0.00;99.90
23188;DHT22;11762;59.878;17.686;2022-11-20T10:47:30;-0.10;99.90
23188;DHT22;11762;59.878;17.686;2022-11-20T10:50:03;0.00;99.90
23188;DHT22;11762;59.878;17.686;2022-11-20T10:52:37;-0.10;99.90
23188;DHT22;11762;59.878;17.686;2022-11-20T10:55:16;-0.10;99.90
23188;DHT22;11762;59.878;17.686;2022-11-20T10:57:54;-0.10;99.90
23188;DHT22;11762;59.878;17.686;2022-11-20T11:00:24;-0.10;99.90
23188;DHT22;11762;59.878;17.686;2022-11-20T11:02:52;-0.10;99.90
23188;DHT22;11762;59.878;17.686;2022-11-20T11:05:31;-0.10;99.90
23188;DHT22;11762;59.878;17.686;2022-11-20T11:08:03;-0.10;99.90
23188;DHT22;11762;59.878;17.686;2022-11-20T11:10:37;-0.10;99.90
23188;DHT22;11762;59.878;17.686;2022-11-20T11:13:07;-0.10;99.90
23188;DHT22;11762;59.878;17.686;2022-11-20T11:15:38;-0.10;99.90
23188;DHT22;11762;59.878;17.686;2022-11-20T11:18:09;-0.10;99.90
23188;DHT22;11762;59.878;17.686;2022-11-20T11:20:36;-0.10;99.90
23188;DHT22;11762;59.878;17.686;2022-11-20T11:23:05;-0.10;99.90
23188;DHT22;11762;59.878;17.686;2022-11-20T11:25:33;-0.10;99.90
23188;DHT22;11762;59.878;17.686;2022-11-20T11:28:03;-0.10;99.90
23188;DHT22;11762;59.878;17.686;2022-11-20T11:30:41;-0.10;99.90
23188;DHT22;11762;59.878;17.686;2022-11-20T11:33:10;-0.10;99.90
23188;DHT22;11762;59.878;17.686;2022-11-20T11:35:44;-0.10;99.90
23188;DHT22;11762;59.878;17.686;2022-11-20T11:38:16;-0.10;99.90
23188;DHT22;11762;59.878;17.686;2022-11-20T11:40:44;-0.10;99.90
23188;DHT22;11762;59.878;17.686;2022-11-20T11:43:18;-0.10;99.90
23188;DHT22;11762;59.878;17.686;2022-11-20T11:46:23;-0.10;99.90
23188;DHT22;11762;59.878;17.686;2022-11-20T11:48:58;-0.10;99.90
23188;DHT22;11762;59.878;17.686;2022-11-20T11:51:31;-0.10;99.90
23188;DHT22;11762;59.878;17.686;2022-11-20T11:54:03;-0.10;99.90
23188;DHT22;11762;59.878;17.686;2022-11-20T11:56:33;-0.10;99.90
23188;DHT22;11762;59.878;17.686;2022-11-20T11:59:06;-0.10;99.90
23188;DHT22;11762;59.878;17.686;2022-11-20T12:01:36;-0.10;99.90
23188;DHT22;11762;59.878;17.686;2022-11-20T12:04:19;-0.10;99.90
23188;DHT22;11762;59.878;17.686;2022-11-20T12:06:53;-0.10;99.90
23188;DHT22;11762;59.878;17.686;2022-11-20T12:09:34;-0.10;99.90
23188;DHT22;11762;59.878;17.686;2022-11-20T12:12:08;-0.10;99.90
23188;DHT22;11762;59.878;17.686;2022-11-20T12:14:38;-0.10;99.90
23188;DHT22;11762;59.878;17.686;2022-11-20T12:17:11;-0.10;99.90
23188;DHT22;11762;59.878;17.686;2022-11-20T12:19:38;0.00;99.90
23188;DHT22;11762;59.878;17.686;2022-11-20T12:22:14;-0.10;99.90
23188;DHT22;11762;59.878;17.686;2022-11-20T12:24:52;-0.10;99.90
23188;DHT22;11762;59.878;17.686;2022-11-20T12:30:15;0.00;99.90
23188;DHT22;11762;59.878;17.686;2022-11-20T12:36:11;0.00;99.90
23188;DHT22;11762;59.878;17.686;2022-11-20T12:38:55;0.00;99.90
23188;DHT22;11762;59.878;17.686;2022-11-20T12:41:42;0.00;99.90
23188;DHT22;11762;59.878;17.686;2022-11-20T12:44:52;0.00;99.90
23188;DHT22;11762;59.878;17.686;2022-11-20T12:50:38;0.10;99.90
23188;DHT22;11762;59.878;17.686;2022-11-20T12:53:11;0.00;99.90
23188;DHT22;11762;59.878;17.686;2022-11-20T12:55:49;0.10;99.90
23188;DHT22;11762;59.878;17.686;2022-11-20T12:58:27;0.00;99.90
23188;DHT22;11762;59.878;17.686;2022-11-20T13:00:58;0.10;99.90
23188;DHT22;11762;59.878;17.686;2022-11-20T13:03:34;0.10;99.90
23188;DHT22;11762;59.878;17.686;2022-11-20T13:06:11;0.10;99.90
23188;DHT22;11762;59.878;17.686;2022-11-20T13:08:41;0.10;99.90
23188;DHT22;11762;59.878;17.686;2022-11-20T13:11:16;0.00;99.90
23188;DHT22;11762;59.878;17.686;2022-11-20T13:14:07;0.10;99.90
23188;DHT22;11762;59.878;17.686;2022-11-20T13:16:41;0.10;99.90
23188;DHT22;11762;59.878;17.686;2022-11-20T13:19:12;0.10;99.90
23188;DHT22;11762;59.878;17.686;2022-11-20T13:21:41;0.10;99.90
23188;DHT22;11762;59.878;17.686;2022-11-20T13:24:21;0.00;99.90
23188;DHT22;11762;59.878;17.686;2022-11-20T13:27:03;0.00;99.90
23188;DHT22;11762;59.878;17.686;2022-11-20T13:29:33;0.00;99.90
23188;DHT22;11762;59.878;17.686;2022-11-20T13:32:05;0.00;99.90
23188;DHT22;11762;59.878;17.686;2022-11-20T13:34:34;0.00;99.90
23188;DHT22;11762;59.878;17.686;2022-11-20T13:37:03;0.00;99.90
23188;DHT22;11762;59.878;17.686;2022-11-20T13:39:31;0.00;99.90
23188;DHT22;11762;59.878;17.686;2022-11-20T13:42:00;0.00;99.90
23188;DHT22;11762;59.878;17.686;2022-11-20T13:44:35;0.00;99.90
23188;DHT22;11762;59.878;17.686;2022-11-20T13:47:04;0.00;99.90
23188;DHT22;11762;59.878;17.686;2022-11-20T13:49:46;0.00;99.90
23188;DHT22;11762;59.878;17.686;2022-11-20T13:52:38;0.00;99.90
23188;DHT22;11762;59.878;17.686;2022-11-20T13:55:16;0.00;99.90
23188;DHT22;11762;59.878;17.686;2022-11-20T13:58:00;0.00;99.90
23188;DHT22;11762;59.878;17.686;2022-11-20T14:00:33;0.00;99.90
23188;DHT22;11762;59.878;17.686;2022-11-20T14:03:08;0.00;99.90
23188;DHT22;11762;59.878;17.686;2022-11-20T14:05:40;0.00;99.90
23188;DHT22;11762;59.878;17.686;2022-11-20T14:08:21;0.10;99.90
23188;DHT22;11762;59.878;17.686;2022-11-20T14:10:49;0.00;99.90
23188;DHT22;11762;59.878;17.686;2022-11-20T14:13:18;0.00;99.90
23188;DHT22;11762;59.878;17.686;2022-11-20T14:15:47;0.10;99.90
23188;DHT22;11762;59.878;17.686;2022-11-20T14:18:18;0.00;99.90
23188;DHT22;11762;59.878;17.686;2022-11-20T14:20:47;0.00;99.90
23188;DHT22;11762;59.878;17.686;2022-11-20T14:23:23;0.10;99.90
23188;DHT22;11762;59.878;17.686;2022-11-20T14:25:51;0.00;99.90
23188;DHT22;11762;59.878;17.686;2022-11-20T14:28:24;0.00;99.90
23188;DHT22;11762;59.878;17.686;2022-11-20T14:30:54;0.00;99.90
23188;DHT22;11762;59.878;17.686;2022-11-20T14:33:22;0.00;99.90
23188;DHT22;11762;59.878;17.686;2022-11-20T14:35:52;0.10;99.90
23188;DHT22;11762;59.878;17.686;2022-11-20T14:38:24;0.10;99.90
23188;DHT22;11762;59.878;17.686;2022-11-20T14:40:51;0.00;99.90
23188;DHT22;11762;59.878;17.686;2022-11-20T14:43:22;0.00;99.90
23188;DHT22;11762;59.878;17.686;2022-11-20T14:45:56;0.10;99.90
23188;DHT22;11762;59.878;17.686;2022-11-20T14:48:29;0.10;99.90
23188;DHT22;11762;59.878;17.686;2022-11-20T14:50:57;0.10;99.90
23188;DHT22;11762;59.878;17.686;2022-11-20T14:53:25;0.00;99.90
23188;DHT22;11762;59.878;17.686;2022-11-20T14:55:57;0.00;99.90
23188;DHT22;11762;59.878;17.686;2022-11-20T14:58:26;0.00;99.90
23188;DHT22;11762;59.878;17.686;2022-11-20T15:00:56;0.10;99.90
23188;DHT22;11762;59.878;17.686;2022-11-20T15:03:23;0.00;99.90
23188;DHT22;11762;59.878;17.686;2022-11-20T15:05:50;0.10;99.90
23188;DHT22;11762;59.878;17.686;2022-11-20T15:08:18;0.10;99.90
23188;DHT22;11762;59.878;17.686;2022-11-20T15:10:46;0.10;99.90
23188;DHT22;11762;59.878;17.686;2022-11-20T15:13:17;0.10;99.90
23188;DHT22;11762;59.878;17.686;2022-11-20T15:15:49;0.00;99.90
23188;DHT22;11762;59.878;17.686;2022-11-20T15:18:19;-0.20;99.90
23188;DHT22;11762;59.878;17.686;2022-11-20T15:20:47;-0.30;99.90
23188;DHT22;11762;59.878;17.686;2022-11-20T15:23:17;-0.40;99.90
23188;DHT22;11762;59.878;17.686;2022-11-20T15:25:45;-0.40;99.90
23188;DHT22;11762;59.878;17.686;2022-11-20T15:28:16;-0.30;99.90
23188;DHT22;11762;59.878;17.686;2022-11-20T15:30:44;-0.30;99.90
23188;DHT22;11762;59.878;17.686;2022-11-20T15:33:12;-0.30;99.90
23188;DHT22;11762;59.878;17.686;2022-11-20T15:35:41;-0.20;99.90
23188;DHT22;11762;59.878;17.686;2022-11-20T15:38:08;-0.20;99.90
23188;DHT22;11762;59.878;17.686;2022-11-20T15:40:35;-0.10;99.90
23188;DHT22;11762;59.878;17.686;2022-11-20T15:43:02;-0.10;99.90
23188;DHT22;11762;59.878;17.686;2022-11-20T15:45:33;-0.10;99.90
23188;DHT22;11762;59.878;17.686;2022-11-20T15:48:01;-0.10;99.90
23188;DHT22;11762;59.878;17.686;2022-11-20T15:50:34;-0.10;99.90
23188;DHT22;11762;59.878;17.686;2022-11-20T15:53:04;-0.10;99.90
23188;DHT22;11762;59.878;17.686;2022-11-20T15:55:31;-0.10;99.90